Humansville, Missouri
Current Conditions -  °F | °C
As of 7:35 AM on Sunday 23 Nov 2014 (Local Time) from KGLY Reporting Station
Overcast Overcast  
Wind Chill: 55°   Ceiling: 2700
Heat Index: 55°   Visibility: 9mi
Dew Point: 54°   Wind: 12mph
Humidity: 94%   Direction: 160°SSE
Pressure: 29.56"   Gusts: NA
Location:  37.79°N, 93.58°W
Report Text: KGLY 231335Z AUTO 16010KT 9SM BKN027 OVC032 13/12 A2956 RMK AO2
Loading
Personal Weather Stations






























Interactive Weather Map New forecast layout! Learn more

10-Day Weather Forecast

Advertisements
Track Severe Weather on mobile